createdAt,value
2017-03-22T00:00:00.164Z,0
2017-03-22T00:01:10.428Z,0
2017-03-22T00:02:20.688Z,0
2017-03-22T00:03:30.942Z,0
2017-03-22T00:04:40.885Z,0
2017-03-22T00:05:51.145Z,0
2017-03-22T00:07:01.398Z,0
2017-03-22T00:08:11.350Z,0
2017-03-22T00:09:21.608Z,0
2017-03-22T00:10:31.865Z,0
2017-03-22T00:11:41.828Z,0
2017-03-22T00:12:52.091Z,0
2017-03-22T00:14:02.358Z,0
2017-03-22T00:15:12.615Z,0
2017-03-22T00:16:22.560Z,0
2017-03-22T00:17:32.815Z,0
2017-03-22T00:18:43.077Z,0
2017-03-22T00:19:53.334Z,0
2017-03-22T00:21:03.605Z,0
2017-03-22T00:22:13.235Z,0
2017-03-22T00:23:23.185Z,0
2017-03-22T00:24:33.442Z,0
2017-03-22T00:25:43.377Z,0
2017-03-22T00:26:53.314Z,0
2017-03-22T00:28:03.580Z,0
2017-03-22T00:29:13.839Z,0
2017-03-22T00:30:24.093Z,0
2017-03-22T00:31:34.349Z,0
2017-03-22T00:32:44.624Z,0
2017-03-22T00:33:54.886Z,0
2017-03-22T00:35:05.152Z,0
2017-03-22T00:36:15.412Z,0
2017-03-22T00:37:25.354Z,0
2017-03-22T00:38:35.306Z,0
2017-03-22T00:39:45.563Z,0
2017-03-22T00:40:55.821Z,0
2017-03-22T00:42:05.762Z,0
2017-03-22T00:43:16.022Z,0
2017-03-22T00:44:26.276Z,0
2017-03-22T00:45:36.534Z,0
2017-03-22T00:46:46.794Z,0
2017-03-22T00:47:57.056Z,0
2017-03-22T00:49:07.008Z,0
2017-03-22T00:50:17.266Z,0
2017-03-22T00:51:27.519Z,0
2017-03-22T00:52:37.159Z,0
2017-03-22T00:53:47.426Z,0
2017-03-22T00:54:57.383Z,0
2017-03-22T00:56:07.324Z,0
2017-03-22T00:57:17.579Z,0
2017-03-22T00:58:27.563Z,0
2017-03-22T00:59:37.507Z,0
2017-03-22T01:00:47.798Z,0
2017-03-22T01:01:58.051Z,0
2017-03-22T01:03:08.314Z,0
2017-03-22T01:04:18.576Z,0
2017-03-22T01:05:28.827Z,0
2017-03-22T01:06:39.080Z,0
2017-03-22T01:07:49.341Z,0
2017-03-22T01:08:59.609Z,0
2017-03-22T01:10:09.865Z,0
2017-03-22T01:11:19.811Z,0
2017-03-22T01:12:30.108Z,0
2017-03-22T01:13:40.370Z,0
2017-03-22T01:14:50.626Z,0
2017-03-22T01:16:00.885Z,0
2017-03-22T01:17:10.518Z,0
2017-03-22T01:18:20.777Z,0
2017-03-22T01:19:31.027Z,0
2017-03-22T01:20:41.276Z,0
2017-03-22T01:21:51.220Z,0
2017-03-22T01:23:01.481Z,0
2017-03-22T01:24:11.752Z,0
2017-03-22T01:25:22.009Z,0
2017-03-22T01:26:31.945Z,0
2017-03-22T01:27:41.895Z,0
2017-03-22T01:28:52.158Z,0
2017-03-22T01:30:02.104Z,0
2017-03-22T01:31:12.077Z,0
2017-03-22T01:32:22.330Z,0
2017-03-22T01:33:32.591Z,0
2017-03-22T01:34:42.848Z,0
2017-03-22T01:35:52.471Z,0
2017-03-22T01:37:02.723Z,0
2017-03-22T01:38:12.987Z,0
2017-03-22T01:39:23.246Z,0
2017-03-22T01:40:33.189Z,0
2017-03-22T01:41:43.441Z,0
2017-03-22T01:42:53.707Z,0
2017-03-22T01:44:03.980Z,0
2017-03-22T01:45:14.247Z,0
2017-03-22T01:46:24.187Z,0
2017-03-22T01:47:34.445Z,0
2017-03-22T01:48:44.699Z,0
2017-03-22T01:49:54.955Z,0
2017-03-22T01:51:05.215Z,0
2017-03-22T01:52:15.464Z,0
2017-03-22T01:53:25.723Z,0
2017-03-22T01:54:35.348Z,0
2017-03-22T01:55:45.599Z,0
2017-03-22T01:56:54.915Z,0
2017-03-22T01:58:04.863Z,0
2017-03-22T01:59:15.134Z,0
2017-03-22T02:00:25.386Z,0
2017-03-22T02:01:35.640Z,0
2017-03-22T02:02:46.148Z,0
2017-03-22T02:03:56.409Z,0
2017-03-22T02:05:06.351Z,0
2017-03-22T02:06:15.977Z,0
2017-03-22T02:07:25.924Z,0
2017-03-22T02:08:36.178Z,0
2017-03-22T02:09:46.435Z,0
2017-03-22T02:10:56.689Z,0
2017-03-22T02:12:06.314Z,0
2017-03-22T02:13:16.264Z,0
2017-03-22T02:14:25.888Z,0
2017-03-22T02:15:36.147Z,0
2017-03-22T02:16:46.093Z,0
2017-03-22T02:17:56.349Z,0
2017-03-22T02:19:06.292Z,0
2017-03-22T02:20:16.557Z,0
2017-03-22T02:21:26.803Z,0
2017-03-22T02:22:37.056Z,0
2017-03-22T02:23:47.001Z,0
2017-03-22T02:24:57.267Z,0
2017-03-22T02:26:07.529Z,0
2017-03-22T02:27:17.469Z,0
2017-03-22T02:28:27.413Z,0
2017-03-22T02:29:37.675Z,0
2017-03-22T02:30:47.932Z,0
2017-03-22T02:31:57.561Z,0
2017-03-22T02:33:07.814Z,0
2017-03-22T02:34:18.073Z,0
2017-03-22T02:35:28.017Z,0
2017-03-22T02:36:38.270Z,0
2017-03-22T02:37:48.528Z,0
2017-03-22T02:38:58.792Z,0
2017-03-22T02:40:08.789Z,0
2017-03-22T02:41:18.761Z,0
2017-03-22T02:42:28.708Z,0
2017-03-22T02:43:38.971Z,0
2017-03-22T02:44:48.927Z,0
2017-03-22T02:45:59.189Z,0
2017-03-22T02:47:09.443Z,0
2017-03-22T02:48:19.703Z,0
2017-03-22T02:49:29.956Z,0
2017-03-22T02:50:39.905Z,0
2017-03-22T02:51:49.851Z,0
2017-03-22T02:53:00.135Z,0
2017-03-22T02:54:09.773Z,0
2017-03-22T02:55:19.715Z,0
2017-03-22T02:56:29.979Z,0
2017-03-22T02:57:39.946Z,0
2017-03-22T02:58:49.891Z,0
2017-03-22T03:00:00.148Z,0
2017-03-22T03:01:10.414Z,0
2017-03-22T03:02:20.390Z,0
2017-03-22T03:03:30.645Z,0
2017-03-22T03:04:40.900Z,0
2017-03-22T03:05:50.532Z,0
2017-03-22T03:07:00.793Z,0
2017-03-22T03:08:11.056Z,0
2017-03-22T03:09:21.316Z,0
2017-03-22T03:10:31.261Z,0
2017-03-22T03:11:41.514Z,0
2017-03-22T03:12:51.783Z,0
2017-03-22T03:14:02.044Z,0
2017-03-22T03:15:11.982Z,0
2017-03-22T03:16:22.241Z,0
2017-03-22T03:17:31.868Z,0
2017-03-22T03:18:42.162Z,0
2017-03-22T03:19:52.425Z,0
2017-03-22T03:21:02.680Z,0
2017-03-22T03:22:11.991Z,0
2017-03-22T03:23:22.255Z,0
2017-03-22T03:24:32.196Z,0
2017-03-22T03:25:42.136Z,0
2017-03-22T03:26:52.390Z,0
2017-03-22T03:28:02.649Z,0
2017-03-22T03:29:12.918Z,0
2017-03-22T03:30:23.174Z,0
2017-03-22T03:31:33.432Z,0
2017-03-22T03:32:43.694Z,0
2017-03-22T03:33:53.953Z,0
2017-03-22T03:35:03.894Z,0
2017-03-22T03:36:13.837Z,0
2017-03-22T03:37:24.114Z,0
2017-03-22T03:38:33.754Z,0
2017-03-22T03:39:44.010Z,0
2017-03-22T03:40:54.264Z,0
2017-03-22T03:42:04.513Z,0
2017-03-22T03:43:14.458Z,0
2017-03-22T03:44:24.713Z,0
2017-03-22T03:45:34.650Z,0
2017-03-22T03:46:44.899Z,0
2017-03-22T03:47:55.159Z,0
2017-03-22T03:49:05.103Z,0
2017-03-22T03:50:15.042Z,0
2017-03-22T03:51:24.981Z,0
2017-03-22T03:52:35.237Z,0
2017-03-22T03:53:45.182Z,0
2017-03-22T03:54:55.123Z,0
2017-03-22T03:56:05.071Z,0
2017-03-22T03:57:15.322Z,0
2017-03-22T03:58:25.581Z,0
2017-03-22T03:59:35.628Z,0
2017-03-22T04:00:45.872Z,0
2017-03-22T04:01:56.117Z,0
2017-03-22T04:03:06.376Z,0
2017-03-22T04:04:16.324Z,0
2017-03-22T04:05:26.579Z,0
2017-03-22T04:06:36.514Z,0
2017-03-22T04:07:46.780Z,0
2017-03-22T04:08:57.041Z,0
2017-03-22T04:10:07.295Z,0
2017-03-22T04:11:19.552Z,0
2017-03-22T04:12:29.178Z,0
2017-03-22T04:13:39.436Z,0
2017-03-22T04:14:49.383Z,0
2017-03-22T04:15:59.632Z,0
2017-03-22T04:17:09.889Z,0
2017-03-22T04:18:20.193Z,0
2017-03-22T04:19:30.457Z,0
2017-03-22T04:20:40.707Z,0
2017-03-22T04:21:50.684Z,0
2017-03-22T04:23:00.940Z,0
2017-03-22T04:24:10.884Z,0
2017-03-22T04:25:21.154Z,0
2017-03-22T04:26:31.406Z,0
2017-03-22T04:27:41.379Z,0
2017-03-22T04:28:51.645Z,0
2017-03-22T04:30:01.906Z,0
2017-03-22T04:31:12.161Z,0
2017-03-22T04:32:22.108Z,0
2017-03-22T04:33:32.070Z,0
2017-03-22T04:34:42.325Z,0
2017-03-22T04:35:52.586Z,0
2017-03-22T04:37:02.522Z,0
2017-03-22T04:38:12.777Z,0
2017-03-22T04:39:23.032Z,0
2017-03-22T04:40:33.285Z,0
2017-03-22T04:41:43.532Z,0
2017-03-22T04:42:53.834Z,0
2017-03-22T04:44:04.090Z,0
2017-03-22T04:45:14.339Z,0
2017-03-22T04:46:24.276Z,0
2017-03-22T04:47:34.217Z,0
2017-03-22T04:48:44.479Z,0
2017-03-22T04:49:54.738Z,0
2017-03-22T04:51:04.996Z,0
2017-03-22T04:52:15.253Z,0
2017-03-22T04:53:25.522Z,0
2017-03-22T04:54:35.468Z,0
2017-03-22T04:55:45.723Z,0
2017-03-22T04:56:55.979Z,0
2017-03-22T04:58:06.251Z,0
2017-03-22T04:59:16.509Z,0
2017-03-22T05:00:26.795Z,0
2017-03-22T05:01:37.043Z,0
2017-03-22T05:02:46.986Z,5
2017-03-22T05:03:57.244Z,5
2017-03-22T05:05:06.559Z,5
2017-03-22T05:06:16.502Z,5
2017-03-22T05:07:26.764Z,5
2017-03-22T05:08:37.046Z,5
2017-03-22T05:09:46.984Z,5
2017-03-22T05:10:57.231Z,10
2017-03-22T05:12:07.486Z,10
2017-03-22T05:13:17.749Z,10
2017-03-22T05:14:28.009Z,10
2017-03-22T05:15:38.263Z,15
2017-03-22T05:16:48.524Z,15
2017-03-22T05:17:58.783Z,15
2017-03-22T05:19:09.046Z,20
2017-03-22T05:20:18.984Z,20
2017-03-22T05:21:29.241Z,25
2017-03-22T05:22:39.509Z,25
2017-03-22T05:23:49.475Z,25
2017-03-22T05:24:59.734Z,30
2017-03-22T05:26:09.354Z,30
2017-03-22T05:27:19.602Z,30
2017-03-22T05:28:29.865Z,35
2017-03-22T05:29:40.129Z,35
2017-03-22T05:30:49.751Z,40
2017-03-22T05:31:59.684Z,40
2017-03-22T05:33:09.937Z,45
2017-03-22T05:34:20.201Z,45
2017-03-22T05:35:30.461Z,50
2017-03-22T05:36:40.409Z,55
2017-03-22T05:37:50.351Z,55
2017-03-22T05:39:00.608Z,60
2017-03-22T05:40:10.236Z,60
2017-03-22T05:41:20.492Z,65
2017-03-22T05:42:30.745Z,65
2017-03-22T05:43:41.059Z,70
2017-03-22T05:44:51.306Z,70
2017-03-22T05:46:01.554Z,75
2017-03-22T05:47:11.508Z,75
2017-03-22T05:48:21.768Z,75
2017-03-22T05:49:31.711Z,75
2017-03-22T05:50:41.960Z,80
2017-03-22T05:51:51.269Z,80
2017-03-22T05:53:01.524Z,80
2017-03-22T05:54:11.478Z,85
2017-03-22T05:55:21.752Z,85
2017-03-22T05:56:31.379Z,90
2017-03-22T05:57:41.318Z,95
2017-03-22T05:58:51.573Z,95
2017-03-22T06:00:01.851Z,95
2017-03-22T06:01:12.104Z,95
2017-03-22T06:02:22.047Z,95
2017-03-22T06:03:32.304Z,95
2017-03-22T06:04:42.562Z,95
2017-03-22T06:05:52.504Z,100
2017-03-22T06:07:02.451Z,100
2017-03-22T06:08:12.713Z,100
2017-03-22T06:09:22.356Z,100
2017-03-22T06:10:32.612Z,100
2017-03-22T06:11:42.549Z,100
2017-03-22T06:12:52.180Z,100
2017-03-22T06:14:02.437Z,100
2017-03-22T06:15:12.395Z,100
2017-03-22T06:16:22.340Z,100
2017-03-22T06:17:32.589Z,100
2017-03-22T06:18:42.839Z,105
2017-03-22T06:19:52.784Z,105
2017-03-22T06:21:02.724Z,105
2017-03-22T06:22:12.985Z,105
2017-03-22T06:23:23.252Z,110
2017-03-22T06:24:33.509Z,110
2017-03-22T06:25:43.760Z,110
2017-03-22T06:26:53.385Z,115
2017-03-22T06:28:03.379Z,115
2017-03-22T06:29:13.638Z,115
2017-03-22T06:30:23.894Z,115
2017-03-22T06:31:36.815Z,120
2017-03-22T06:32:47.075Z,120
2017-03-22T06:33:57.024Z,120
2017-03-22T06:35:07.282Z,120
2017-03-22T06:36:17.226Z,120
2017-03-22T06:37:27.480Z,125
2017-03-22T06:38:37.742Z,125
2017-03-22T06:39:47.995Z,125
2017-03-22T06:40:57.625Z,125
2017-03-22T06:42:07.572Z,130
2017-03-22T06:43:17.512Z,130
2017-03-22T06:44:27.800Z,130
2017-03-22T06:45:37.743Z,130
2017-03-22T06:46:48.042Z,130
2017-03-22T06:47:58.299Z,135
2017-03-22T06:49:08.580Z,135
2017-03-22T06:50:18.836Z,135
2017-03-22T06:51:29.119Z,135
2017-03-22T06:52:39.375Z,135
2017-03-22T06:53:49.637Z,135
2017-03-22T06:54:59.592Z,135
2017-03-22T06:56:09.221Z,135
2017-03-22T06:57:19.474Z,135
2017-03-22T06:58:29.423Z,135
2017-03-22T06:59:39.365Z,140
2017-03-22T07:00:49.305Z,140
2017-03-22T07:01:59.556Z,140
2017-03-22T07:03:09.501Z,140
2017-03-22T07:04:19.447Z,140
2017-03-22T07:05:29.392Z,140
2017-03-22T07:06:39.651Z,145
2017-03-22T07:07:49.597Z,145
2017-03-22T07:08:59.914Z,145
2017-03-22T07:10:09.587Z,145
2017-03-22T07:11:19.850Z,145
2017-03-22T07:12:30.105Z,145
2017-03-22T07:13:40.381Z,150
2017-03-22T07:14:50.634Z,150
2017-03-22T07:16:00.574Z,150
2017-03-22T07:17:10.830Z,150
2017-03-22T07:18:21.091Z,150
2017-03-22T07:19:31.357Z,150
2017-03-22T07:20:41.613Z,155
2017-03-22T07:21:51.864Z,155
2017-03-22T07:23:02.126Z,155
2017-03-22T07:24:11.750Z,155
2017-03-22T07:25:21.685Z,155
2017-03-22T07:26:31.627Z,155
2017-03-22T07:27:41.890Z,155
2017-03-22T07:28:52.149Z,155
2017-03-22T07:30:02.100Z,160
2017-03-22T07:31:12.362Z,160
2017-03-22T07:32:22.620Z,160
2017-03-22T07:33:32.891Z,160
2017-03-22T07:34:43.155Z,160
2017-03-22T07:35:53.091Z,160
2017-03-22T07:37:03.351Z,160
2017-03-22T07:38:13.604Z,160
2017-03-22T07:39:23.869Z,160
2017-03-22T07:40:34.132Z,165
2017-03-22T07:41:44.075Z,165
2017-03-22T07:42:54.022Z,165
2017-03-22T07:44:04.284Z,165
2017-03-22T07:45:14.540Z,165
2017-03-22T07:46:24.485Z,165
2017-03-22T07:47:34.744Z,165
2017-03-22T07:48:44.396Z,165
2017-03-22T07:49:54.660Z,170
2017-03-22T07:51:04.918Z,170
2017-03-22T07:52:14.854Z,170
2017-03-22T07:53:25.107Z,170
2017-03-22T07:54:35.366Z,170
2017-03-22T07:55:45.617Z,170
2017-03-22T07:56:55.873Z,170
2017-03-22T07:58:05.822Z,170
2017-03-22T07:59:15.517Z,170
2017-03-22T08:00:25.770Z,180
2017-03-22T08:01:35.754Z,175
2017-03-22T08:02:45.722Z,175
2017-03-22T08:03:55.348Z,175
2017-03-22T08:05:05.606Z,175
2017-03-22T08:06:15.554Z,175
2017-03-22T08:07:25.501Z,180
2017-03-22T08:08:35.759Z,180
2017-03-22T08:09:46.067Z,180
2017-03-22T08:10:56.334Z,180
2017-03-22T08:12:06.286Z,185
2017-03-22T08:13:16.548Z,180
2017-03-22T08:14:26.816Z,180
2017-03-22T08:15:36.762Z,180
2017-03-22T08:16:47.016Z,180
2017-03-22T08:17:57.278Z,180
2017-03-22T08:19:07.225Z,180
2017-03-22T08:20:17.481Z,180
2017-03-22T08:21:27.736Z,180
2017-03-22T08:22:37.994Z,180
2017-03-22T08:23:48.263Z,185
2017-03-22T08:24:58.217Z,185
2017-03-22T08:26:08.467Z,185
2017-03-22T08:27:18.723Z,185
2017-03-22T08:28:28.984Z,185
2017-03-22T08:29:38.961Z,185
2017-03-22T08:30:48.907Z,185
2017-03-22T08:31:58.852Z,185
2017-03-22T08:33:09.109Z,190
2017-03-22T08:34:19.373Z,190
2017-03-22T08:35:29.627Z,190
2017-03-22T08:36:39.882Z,190
2017-03-22T08:37:50.141Z,190
2017-03-22T08:39:00.398Z,190
2017-03-22T08:40:10.337Z,195
2017-03-22T08:41:20.587Z,190
2017-03-22T08:42:30.537Z,195
2017-03-22T08:43:40.814Z,195
2017-03-22T08:44:50.750Z,195
2017-03-22T08:46:00.694Z,195
2017-03-22T08:47:10.949Z,195
2017-03-22T08:48:20.896Z,195
2017-03-22T08:49:31.154Z,195
2017-03-22T08:50:41.443Z,195
2017-03-22T08:51:51.383Z,200
2017-03-22T08:53:01.641Z,200
2017-03-22T08:54:11.904Z,200
2017-03-22T08:55:21.844Z,200
2017-03-22T08:56:32.092Z,200
2017-03-22T08:57:42.355Z,200
2017-03-22T08:58:52.297Z,200
2017-03-22T09:00:02.238Z,200
2017-03-22T09:01:11.551Z,200
2017-03-22T09:02:21.501Z,200
2017-03-22T09:03:31.440Z,200
2017-03-22T09:04:41.390Z,200
2017-03-22T09:05:51.326Z,200
2017-03-22T09:07:01.578Z,200
2017-03-22T09:08:11.829Z,200
2017-03-22T09:09:22.079Z,200
2017-03-22T09:10:32.333Z,205
2017-03-22T09:11:42.653Z,205
2017-03-22T09:12:52.281Z,205
2017-03-22T09:14:02.220Z,205
2017-03-22T09:15:12.170Z,205
2017-03-22T09:16:22.425Z,205
2017-03-22T09:17:32.362Z,205
2017-03-22T09:18:42.617Z,205
2017-03-22T09:19:52.874Z,205
2017-03-22T09:21:03.135Z,205
2017-03-22T09:22:13.077Z,205
2017-03-22T09:23:23.329Z,205
2017-03-22T09:24:33.585Z,205
2017-03-22T09:25:43.841Z,205
2017-03-22T09:26:53.780Z,205
2017-03-22T09:28:04.041Z,205
2017-03-22T09:29:14.308Z,210
2017-03-22T09:30:24.253Z,215
2017-03-22T09:31:34.508Z,210
2017-03-22T09:32:44.449Z,210
2017-03-22T09:33:54.709Z,210
2017-03-22T09:35:04.967Z,210
2017-03-22T09:36:14.596Z,210
2017-03-22T09:37:24.540Z,210
2017-03-22T09:38:34.807Z,210
2017-03-22T09:39:45.063Z,210
2017-03-22T09:40:55.005Z,210
2017-03-22T09:42:05.278Z,210
2017-03-22T09:43:15.534Z,210
2017-03-22T09:44:25.786Z,210
2017-03-22T09:45:36.047Z,210
2017-03-22T09:46:45.674Z,215
2017-03-22T09:47:55.924Z,215
2017-03-22T09:49:05.559Z,215
2017-03-22T09:50:15.499Z,215
2017-03-22T09:51:25.753Z,215
2017-03-22T09:52:35.691Z,215
2017-03-22T09:53:45.626Z,215
2017-03-22T09:54:55.569Z,215
2017-03-22T09:56:05.833Z,215
2017-03-22T09:57:15.151Z,215
2017-03-22T09:58:25.110Z,215
2017-03-22T09:59:35.375Z,215
2017-03-22T10:00:45.313Z,215
2017-03-22T10:01:54.979Z,220
2017-03-22T10:03:04.604Z,220
2017-03-22T10:04:14.859Z,220
2017-03-22T10:05:25.110Z,220
2017-03-22T10:06:35.054Z,220
2017-03-22T10:07:44.996Z,225
2017-03-22T10:08:55.254Z,230
2017-03-22T10:10:05.192Z,230
2017-03-22T10:11:14.187Z,230
2017-03-22T10:12:23.811Z,230
2017-03-22T10:13:34.104Z,230
2017-03-22T10:14:44.043Z,230
2017-03-22T10:15:54.335Z,235
2017-03-22T10:17:04.269Z,240
2017-03-22T10:18:14.215Z,240
2017-03-22T10:19:24.474Z,250
2017-03-22T10:20:34.737Z,250
2017-03-22T10:21:44.993Z,255
2017-03-22T10:22:54.305Z,260
2017-03-22T10:24:04.553Z,265
2017-03-22T10:25:14.812Z,265
2017-03-22T10:26:24.753Z,265
2017-03-22T10:27:35.006Z,270
2017-03-22T10:28:45.265Z,270
2017-03-22T10:29:55.526Z,275
2017-03-22T10:31:05.778Z,285
2017-03-22T10:32:15.717Z,280
2017-03-22T10:33:25.974Z,285
2017-03-22T10:34:35.294Z,285
2017-03-22T10:35:45.554Z,290
2017-03-22T10:36:55.492Z,285
2017-03-22T10:38:05.432Z,285
2017-03-22T10:39:15.685Z,300
2017-03-22T10:40:25.941Z,295
2017-03-22T10:41:35.882Z,290
2017-03-22T10:42:45.827Z,285
2017-03-22T10:43:55.803Z,280
2017-03-22T10:45:05.427Z,275
2017-03-22T10:46:15.372Z,280
2017-03-22T10:47:25.629Z,280
2017-03-22T10:48:35.581Z,290
2017-03-22T10:49:45.517Z,295
2017-03-22T10:50:55.773Z,300
2017-03-22T10:52:05.719Z,305
2017-03-22T10:53:15.978Z,300
2017-03-22T10:54:25.910Z,305
2017-03-22T10:55:36.168Z,310
2017-03-22T10:56:46.429Z,310
2017-03-22T10:57:56.692Z,320
2017-03-22T10:59:06.942Z,315
2017-03-22T11:00:17.200Z,320
2017-03-22T11:01:27.148Z,325
2017-03-22T11:02:37.408Z,330
2017-03-22T11:03:47.657Z,330
2017-03-22T11:04:57.599Z,335
2017-03-22T11:06:07.852Z,335
2017-03-22T11:07:18.110Z,335
2017-03-22T11:08:28.366Z,335
2017-03-22T11:09:38.620Z,340
2017-03-22T11:10:48.880Z,345
2017-03-22T11:11:59.134Z,355
2017-03-22T11:13:09.082Z,440
2017-03-22T11:14:19.339Z,630
2017-03-22T11:15:29.285Z,725
2017-03-22T11:16:39.232Z,775
2017-03-22T11:17:49.493Z,820
2017-03-22T11:18:59.436Z,780
2017-03-22T11:20:09.694Z,780
2017-03-22T11:21:19.645Z,785
2017-03-22T11:22:29.907Z,850
2017-03-22T11:23:40.196Z,880
2017-03-22T11:24:50.150Z,675
2017-03-22T11:26:00.411Z,650
2017-03-22T11:27:10.043Z,795
2017-03-22T11:28:20.304Z,730
2017-03-22T11:29:30.566Z,585
2017-03-22T11:30:40.827Z,880
2017-03-22T11:31:51.092Z,915
2017-03-22T11:33:00.730Z,970
2017-03-22T11:34:10.691Z,900
2017-03-22T11:35:20.956Z,840
2017-03-22T11:36:30.914Z,715
2017-03-22T11:37:41.188Z,960
2017-03-22T11:38:51.486Z,1030
2017-03-22T11:40:01.438Z,1035
2017-03-22T11:41:11.705Z,1045
2017-03-22T11:42:21.972Z,1035
2017-03-22T11:43:32.248Z,1030
2017-03-22T11:44:42.206Z,1030
2017-03-22T11:45:52.475Z,680
2017-03-22T11:47:02.743Z,680
2017-03-22T11:48:13.017Z,720
2017-03-22T11:49:23.289Z,835
2017-03-22T11:50:33.559Z,1015
2017-03-22T11:51:43.833Z,1145
2017-03-22T11:52:54.102Z,1175
2017-03-22T11:54:04.374Z,820
2017-03-22T11:55:14.329Z,1185
2017-03-22T11:56:23.968Z,935
2017-03-22T11:57:34.240Z,740
2017-03-22T11:58:44.509Z,725
2017-03-22T11:59:54.462Z,825
2017-03-22T12:01:04.735Z,1150
2017-03-22T12:02:14.744Z,950
2017-03-22T12:03:25.024Z,715
2017-03-22T12:04:35.297Z,740
2017-03-22T12:05:45.568Z,610
2017-03-22T12:06:55.532Z,600
2017-03-22T12:08:05.171Z,600
2017-03-22T12:09:15.127Z,605
2017-03-22T12:10:25.398Z,600
2017-03-22T12:11:35.369Z,595
2017-03-22T12:12:45.648Z,560
2017-03-22T12:13:55.917Z,510
2017-03-22T12:15:05.246Z,475
2017-03-22T12:16:15.512Z,450
2017-03-22T12:17:25.464Z,425
2017-03-22T12:18:35.419Z,410
2017-03-22T12:19:45.686Z,375
2017-03-22T12:20:55.637Z,345
2017-03-22T12:22:05.587Z,315
2017-03-22T12:23:15.236Z,290
2017-03-22T12:24:25.502Z,275
2017-03-22T12:25:35.453Z,260
2017-03-22T12:26:45.715Z,255
2017-03-22T12:27:55.667Z,255
2017-03-22T12:29:05.928Z,260
2017-03-22T12:30:15.879Z,265
2017-03-22T12:31:25.830Z,275
2017-03-22T12:32:35.780Z,285
2017-03-22T12:33:46.147Z,300
2017-03-22T12:34:56.411Z,305
2017-03-22T12:36:06.356Z,325
2017-03-22T12:37:16.306Z,335
2017-03-22T12:38:26.252Z,345
2017-03-22T12:39:36.515Z,340
2017-03-22T12:40:46.157Z,335
2017-03-22T12:41:56.421Z,330
2017-03-22T12:43:06.367Z,335
2017-03-22T12:44:16.311Z,350
2017-03-22T12:45:25.937Z,370
2017-03-22T12:46:36.198Z,385
2017-03-22T12:47:46.459Z,420
2017-03-22T12:48:56.713Z,445
2017-03-22T12:50:06.979Z,460
2017-03-22T12:51:16.933Z,470
2017-03-22T12:52:26.566Z,505
2017-03-22T12:53:36.556Z,515
2017-03-22T12:54:46.496Z,680
2017-03-22T12:55:56.442Z,1000
2017-03-22T12:57:06.393Z,925
2017-03-22T12:58:16.338Z,700
2017-03-22T12:59:25.973Z,605
2017-03-22T13:00:36.225Z,590
2017-03-22T13:01:45.859Z,490
2017-03-22T13:02:55.525Z,425
2017-03-22T13:04:05.152Z,410
2017-03-22T13:05:14.818Z,420
2017-03-22T13:06:25.078Z,430
2017-03-22T13:07:35.336Z,380
2017-03-22T13:08:45.287Z,360
2017-03-22T13:09:55.268Z,335
2017-03-22T13:11:05.522Z,310
2017-03-22T13:12:15.779Z,300
2017-03-22T13:13:26.041Z,285
2017-03-22T13:14:36.300Z,275
2017-03-22T13:15:45.934Z,290
2017-03-22T13:16:56.191Z,325
2017-03-22T13:18:06.451Z,360
2017-03-22T13:19:16.094Z,380
2017-03-22T13:20:26.091Z,405
2017-03-22T13:21:35.734Z,430
2017-03-22T13:22:46.002Z,455
2017-03-22T13:23:56.264Z,455
2017-03-22T13:25:06.207Z,445
2017-03-22T13:26:16.151Z,415
2017-03-22T13:27:26.096Z,395
2017-03-22T13:28:36.356Z,370
2017-03-22T13:29:46.615Z,345
2017-03-22T13:30:56.245Z,310
2017-03-22T13:32:06.514Z,280
2017-03-22T13:33:16.156Z,260
2017-03-22T13:34:26.102Z,250
2017-03-22T13:35:36.362Z,240
2017-03-22T13:36:46.309Z,235
2017-03-22T13:37:56.575Z,220
2017-03-22T13:39:06.845Z,205
2017-03-22T13:40:16.788Z,190
2017-03-22T13:41:26.773Z,185
2017-03-22T13:42:37.033Z,190
2017-03-22T13:43:46.671Z,185
2017-03-22T13:44:56.617Z,190
2017-03-22T13:46:06.880Z,200
2017-03-22T13:47:16.824Z,210
2017-03-22T13:48:26.763Z,230
2017-03-22T13:49:37.020Z,265
2017-03-22T13:50:47.274Z,295
2017-03-22T13:51:57.529Z,335
2017-03-22T13:53:07.478Z,395
2017-03-22T13:54:17.427Z,465
2017-03-22T13:55:27.718Z,550
2017-03-22T13:56:37.698Z,635
2017-03-22T13:57:47.648Z,640
2017-03-22T13:58:57.909Z,820
2017-03-22T14:00:07.857Z,675
2017-03-22T14:01:17.810Z,865
2017-03-22T14:02:28.067Z,795
2017-03-22T14:03:38.323Z,820
2017-03-22T14:04:48.581Z,925
2017-03-22T14:05:58.521Z,815
2017-03-22T14:07:08.472Z,790
2017-03-22T14:08:18.417Z,660
2017-03-22T14:09:28.052Z,600
2017-03-22T14:10:38.315Z,560
2017-03-22T14:11:48.572Z,520
2017-03-22T14:12:57.885Z,500
2017-03-22T14:14:07.831Z,495
2017-03-22T14:15:17.465Z,500
2017-03-22T14:16:27.407Z,525
2017-03-22T14:17:37.669Z,530
2017-03-22T14:18:47.929Z,525
2017-03-22T14:19:57.885Z,515
2017-03-22T14:21:08.143Z,495
2017-03-22T14:22:18.087Z,480
2017-03-22T14:23:28.348Z,480
2017-03-22T14:24:38.298Z,480
2017-03-22T14:25:48.602Z,465
2017-03-22T14:26:58.239Z,455
2017-03-22T14:28:07.875Z,440
2017-03-22T14:29:18.133Z,435
2017-03-22T14:30:28.079Z,430
2017-03-22T14:31:38.031Z,445
2017-03-22T14:32:47.976Z,400
2017-03-22T14:33:58.234Z,515
2017-03-22T14:35:07.865Z,395
2017-03-22T14:36:17.495Z,365
2017-03-22T14:37:27.753Z,395
2017-03-22T14:38:38.016Z,335
2017-03-22T14:39:48.275Z,295
2017-03-22T14:40:58.219Z,255
2017-03-22T14:42:07.541Z,235
2017-03-22T14:43:17.807Z,235
2017-03-22T14:44:28.101Z,240
2017-03-22T14:45:38.048Z,235
2017-03-22T14:46:48.307Z,230
2017-03-22T14:47:58.569Z,230
2017-03-22T14:49:08.227Z,235
2017-03-22T14:50:17.856Z,235
2017-03-22T14:51:27.806Z,235
2017-03-22T14:52:38.072Z,265
2017-03-22T14:53:48.016Z,250
2017-03-22T14:54:58.271Z,270
2017-03-22T14:56:08.212Z,280
2017-03-22T14:57:18.155Z,285
2017-03-22T14:58:28.103Z,290
2017-03-22T14:59:38.055Z,305
2017-03-22T15:00:47.686Z,320
2017-03-22T15:01:57.945Z,325
2017-03-22T15:03:07.577Z,350
2017-03-22T15:04:17.843Z,375
2017-03-22T15:05:27.476Z,385
2017-03-22T15:06:37.431Z,395
2017-03-22T15:07:47.057Z,385
2017-03-22T15:08:57.001Z,365
2017-03-22T15:10:06.953Z,350
2017-03-22T15:11:16.906Z,340
2017-03-22T15:12:27.200Z,335
2017-03-22T15:13:37.140Z,325
2017-03-22T15:14:46.773Z,320
2017-03-22T15:15:57.033Z,310
2017-03-22T15:17:06.980Z,300
2017-03-22T15:18:17.235Z,285
2017-03-22T15:19:27.488Z,280
2017-03-22T15:20:37.441Z,270
2017-03-22T15:21:47.383Z,270
2017-03-22T15:22:59.653Z,270
2017-03-22T15:24:09.301Z,265
2017-03-22T15:25:18.925Z,260
2017-03-22T15:26:29.186Z,250
2017-03-22T15:27:39.130Z,240
2017-03-22T15:28:48.755Z,230
2017-03-22T15:29:58.388Z,225
2017-03-22T15:31:08.686Z,215
2017-03-22T15:32:18.631Z,210
2017-03-22T15:33:28.569Z,205
2017-03-22T15:34:38.522Z,195
2017-03-22T15:35:48.154Z,185
2017-03-22T15:36:58.102Z,180
2017-03-22T15:38:07.726Z,165
2017-03-22T15:39:17.358Z,150
2017-03-22T15:40:26.990Z,140
2017-03-22T15:41:36.631Z,135
2017-03-22T15:42:46.569Z,130
2017-03-22T15:43:56.849Z,125
2017-03-22T15:45:06.848Z,125
2017-03-22T15:46:17.107Z,125
2017-03-22T15:47:26.736Z,125
2017-03-22T15:48:36.686Z,125
2017-03-22T15:49:46.317Z,125
2017-03-22T15:50:56.578Z,135
2017-03-22T15:52:06.210Z,130
2017-03-22T15:53:15.843Z,135
2017-03-22T15:54:24.846Z,135
2017-03-22T15:55:35.119Z,140
2017-03-22T15:56:44.751Z,140
2017-03-22T15:57:54.705Z,145
2017-03-22T15:59:04.644Z,145
2017-03-22T16:00:14.911Z,145
2017-03-22T16:01:25.179Z,145
2017-03-22T16:02:35.453Z,150
2017-03-22T16:03:45.710Z,150
2017-03-22T16:04:55.968Z,150
2017-03-22T16:06:06.231Z,165
2017-03-22T16:07:16.172Z,175
2017-03-22T16:08:25.803Z,185
2017-03-22T16:09:35.746Z,200
2017-03-22T16:10:45.701Z,390
2017-03-22T16:11:55.960Z,340
2017-03-22T16:13:05.910Z,585
2017-03-22T16:14:15.858Z,630
2017-03-22T16:15:25.799Z,540
2017-03-22T16:16:36.056Z,370
2017-03-22T16:17:46.311Z,235
2017-03-22T16:18:56.263Z,190
2017-03-22T16:20:06.203Z,195
2017-03-22T16:21:15.847Z,205
2017-03-22T16:22:26.120Z,200
2017-03-22T16:23:35.754Z,205
2017-03-22T16:24:45.705Z,225
2017-03-22T16:25:55.963Z,280
2017-03-22T16:27:05.913Z,275